Etusivu
METAR-TAF:

METAR-TAF

Lentoasemat :

Independence Municipal Airport

Independence, Iowa, Yhdysvallat

Leveyspiiri: 42-27N, Pituuspiiri: 091-56W, korkeus merenpinnasta: 298 m

Tämänhetkinen sää

Tämä raportti tehtiin 15 minuuttia sitten, kello 12.55 UTC
tyyntä
Lämpötila -10°C
Kosteus 92%
Ilmanpaine 1027 hPa
Näkyvyys: 8.0 km
selkeää
utua

METAR: KIIB 151255Z AUTO 00000KT 5SM BR CLR M10/M11 A3032 RMK AO2 T10991106

Aika: 07:10 (13:10 UTC)


TAF: puuttuu

Säähavainnot ja -ennusteet yli 4000 lentoasemalta (METAR- ja TAF-raportit).

Käytössä olevat sääasemat on merkitty karttaan keltaisilla ja punaisilla pisteillä.

Aseta hiiri pisteen päälle nähdäksesi sääaseman nimen.

Klikkaa sitten nähdäksesi säähavainnot ja -ennusteet.

Kartan vaihtaminen: klikkaa mustalla rastilla varustettuja vihreitä pisteitä, niin voit zoomata sisään; viivalla varustettua vihreää pistettä, niin voit zoomata ulos tai vihreitä nuolia, niin pääset viereisille kartoille.


METAR-TAF: